Time;durP1;ratioP1;P1;durP2;ratioP2;P2;SDS_P1;SDS_P2;PMS_P1;PMS_P2;Temp;Humidity;BMP_temperature;BMP_pressure;BME280_temperature;BME280_humidity;BME280_pressure;Samples;Min_cycle;Max_cycle;Signal;HPM_P1;HPM_P2
2022/01/16 00:04:06;;;;;;;12.93;8.83;;;2.70;68.70;;;2.41;52.06;95846.34;5074479;28;20772;-55
2022/01/16 00:04:58;;;;;;;13.57;8.90;;;2.60;68.80;;;2.41;53.12;95839.41;5073550;28;20453;-57
2022/01/16 00:07:25;;;;;;;14.40;8.73;;;2.60;69.10;;;2.40;52.54;95822.16;5073558;28;21026;-56
2022/01/16 00:09:53;;;;;;;14.30;8.70;;;2.60;69.30;;;2.37;53.09;95798.06;5076741;28;20446;-56
2022/01/16 00:12:23;;;;;;;18.17;9.30;;;2.60;69.50;;;2.36;52.07;95824.97;5073658;28;20489;-56
2022/01/16 00:14:51;;;;;;;15.20;9.00;;;2.60;69.50;;;2.35;52.85;95839.66;5072049;28;20451;-55
2022/01/16 00:17:21;;;;;;;21.60;8.97;;;2.60;69.70;;;2.35;53.55;95854.41;5073056;28;20534;-57
2022/01/16 00:19:48;;;;;;;12.80;8.43;;;2.60;70.10;;;2.33;53.21;95857.06;5078340;28;20529;-56
2022/01/16 00:22:16;;;;;;;13.40;8.00;;;2.60;70.40;;;2.35;53.88;95870.81;5077711;28;20451;-56
2022/01/16 00:24:43;;;;;;;16.37;9.20;;;2.60;70.60;;;2.35;53.27;95889.00;5082988;28;20546;-56
2022/01/16 00:27:10;;;;;;;11.00;7.40;;;2.60;70.90;;;2.35;53.92;95904.56;5077153;28;20458;-56
2022/01/16 00:29:38;;;;;;;14.87;8.70;;;2.60;71.30;;;2.34;54.39;95926.25;5079412;28;20446;-55
2022/01/16 00:32:08;;;;;;;13.73;8.27;;;2.60;71.10;;;2.32;53.64;95964.41;5080397;28;20490;-56
2022/01/16 00:34:35;;;;;;;15.60;9.07;;;2.60;71.80;;;2.31;54.55;95880.50;5075309;28;20538;-56
2022/01/16 00:37:03;;;;;;;14.13;8.57;;;2.60;71.90;;;2.32;54.01;95811.25;5076659;28;20489;-55
2022/01/16 00:39:31;;;;;;;12.07;8.60;;;2.60;72.50;;;2.32;54.71;95870.94;5075629;28;20462;-58
2022/01/16 00:41:58;;;;;;;14.60;9.33;;;2.60;73.00;;;2.32;54.53;95882.19;5078996;28;20470;-59
2022/01/16 00:44:25;;;;;;;17.43;9.57;;;2.60;73.10;;;2.32;54.78;95751.53;5082586;28;20847;-56
2022/01/16 00:46:53;;;;;;;13.33;9.23;;;2.60;72.90;;;2.32;54.95;95770.56;5075858;28;20470;-56
2022/01/16 00:49:21;;;;;;;10.90;8.00;;;2.60;73.00;;;2.32;55.43;95791.34;5080389;28;20892;-54
2022/01/16 00:51:49;;;;;;;16.70;10.40;;;2.60;73.30;;;2.31;53.97;95690.19;5075954;28;20469;-55
2022/01/16 00:54:16;;;;;;;13.10;8.80;;;2.60;73.30;;;2.32;54.34;95717.78;5077877;28;20889;-56
2022/01/16 00:56:43;;;;;;;13.57;9.20;;;2.60;73.30;;;2.35;55.16;95727.22;5080026;28;20478;-56
2022/01/16 00:59:10;;;;;;;10.97;8.30;;;2.60;73.60;;;2.33;54.86;95712.53;5078614;28;20454;-56
2022/01/16 01:01:38;;;;;;;17.97;9.77;;;2.60;73.60;;;2.34;55.01;95744.56;5076233;28;20478;-56
2022/01/16 01:04:05;;;;;;;14.70;9.33;;;2.60;73.60;;;2.33;55.49;95790.41;5079061;28;20455;-56
2022/01/16 01:06:34;;;;;;;15.70;9.47;;;2.60;74.00;;;2.33;55.23;95799.97;5081805;28;20470;-56
2022/01/16 01:09:01;;;;;;;21.47;9.40;;;2.60;73.90;;;2.32;55.60;95762.78;5078516;28;20490;-54
2022/01/16 01:11:30;;;;;;;12.80;8.67;;;2.60;73.60;;;2.32;54.64;95773.16;5077164;28;20470;-56
2022/01/16 01:14:14;;;;;;;10.33;8.00;;;2.60;73.90;;;2.31;55.22;95822.56;5079348;28;20450;-57
2022/01/16 01:16:51;;;;;;;10.33;7.27;;;2.60;74.00;;;2.31;55.27;95799.19;5079957;28;20466;-57
2022/01/16 01:19:20;;;;;;;11.90;7.57;;;2.60;74.10;;;2.29;55.80;95788.00;5075126;28;20458;-55
2022/01/16 01:21:49;;;;;;;12.87;7.77;;;2.60;74.10;;;2.27;55.44;95806.25;5076910;28;20532;-55
2022/01/16 01:24:16;;;;;;;9.93;7.07;;;2.50;73.90;;;2.25;55.39;95794.28;5074059;28;20447;-56
2022/01/16 01:26:52;;;;;;;10.80;7.30;;;2.50;74.30;;;2.24;55.52;95793.41;5074719;28;20489;-56
2022/01/16 01:29:21;;;;;;;12.80;7.80;;;2.50;74.40;;;2.26;55.00;95804.59;5077657;28;20489;-57
2022/01/16 01:31:48;;;;;;;10.43;7.17;;;2.50;74.40;;;2.27;55.74;95792.44;5082455;28;20486;-55
2022/01/16 01:34:16;;;;;;;11.87;7.20;;;2.50;74.40;;;2.28;55.10;95786.34;5077990;28;20450;-56
2022/01/16 01:36:47;;;;;;;10.90;7.00;;;2.50;74.40;;;2.30;54.92;95810.47;5077906;28;20493;-56
2022/01/16 01:39:17;;;;;;;9.70;6.83;;;2.50;74.60;;;2.31;54.94;95801.78;5078693;28;20449;-56
2022/01/16 01:41:44;;;;;;;11.53;7.37;;;2.60;74.80;;;2.31;55.14;95817.38;5079274;28;21083;-55
2022/01/16 01:52:25;;;;;;;13.33;8.20;;;2.50;74.50;;;2.30;54.68;95857.19;5076921;28;20810;-56
2022/01/16 01:54:54;;;;;;;15.50;8.07;;;2.50;74.60;;;2.31;56.04;95835.53;5077586;28;20458;-59
2022/01/16 01:57:21;;;;;;;13.50;8.20;;;2.50;75.20;;;2.30;56.61;95850.25;5074864;28;20454;-54
2022/01/16 01:59:49;;;;;;;13.70;8.43;;;2.60;75.40;;;2.29;56.34;95852.91;5077402;28;21017;-55
2022/01/16 02:02:16;;;;;;;11.33;7.83;;;2.50;75.20;;;2.26;55.81;95855.63;5077300;28;20454;-56
2022/01/16 02:04:43;;;;;;;14.80;8.03;;;2.50;75.10;;;2.25;55.68;95849.59;5077266;28;20447;-56
2022/01/16 02:07:10;;;;;;;13.23;8.60;;;2.50;75.20;;;2.25;55.51;95847.00;5076627;28;20470;-56
2022/01/16 02:09:38;;;;;;;12.43;7.63;;;2.50;75.60;;;2.24;56.48;95860.06;5076281;28;20482;-54
2022/01/16 02:12:08;;;;;;;16.73;8.50;;;2.50;75.60;;;2.24;56.27;95867.84;5072266;28;20475;-55
2022/01/16 02:14:50;;;;;;;9.73;8.17;;;2.50;76.30;;;2.23;56.55;95853.16;5072428;28;20486;-54
2022/01/16 02:28:23;;;;;;;18.77;10.37;;;2.40;78.10;;;2.05;57.81;95857.41;5079029;28;20465;-56
2022/01/16 02:31:14;;;;;;;13.07;9.70;;;2.30;78.40;;;2.04;57.74;95856.53;5078722;28;20562;-56
2022/01/16 02:36:49;;;;;;;13.40;8.43;;;2.30;79.90;;;1.99;58.06;95840.31;5021978;28;21001;-55
2022/01/16 02:39:17;;;;;;;15.43;9.30;;;2.30;79.50;;;2.00;58.24;95829.03;5025949;28;20440;-56
2022/01/16 02:41:46;;;;;;;11.60;8.20;;;2.30;79.50;;;2.01;58.46;95828.13;5047715;28;20475;-57
2022/01/16 02:44:19;;;;;;;14.37;9.00;;;2.30;80.70;;;2.05;58.19;95821.06;5075935;28;20447;-56
2022/01/16 02:46:47;;;;;;;13.90;9.83;;;2.30;80.30;;;2.08;58.66;95826.13;5076974;28;20471;-57
2022/01/16 02:49:19;;;;;;;12.57;8.90;;;2.30;80.50;;;2.12;58.55;95833.72;5076214;28;20490;-55
2022/01/16 02:51:46;;;;;;;14.87;10.37;;;2.40;80.30;;;2.15;58.17;95828.41;5078292;28;20470;-57
2022/01/16 02:54:14;;;;;;;16.17;10.83;;;2.40;80.80;;;2.19;58.46;95828.28;5073515;28;20509;-55
2022/01/16 02:56:43;;;;;;;15.20;8.63;;;2.40;80.60;;;2.24;58.35;95826.31;5074555;28;20474;-56
2022/01/16 02:59:11;;;;;;;12.20;8.40;;;2.50;80.80;;;2.26;57.90;95827.09;5070769;28;20634;-56
2022/01/16 03:01:38;;;;;;;12.77;8.50;;;2.50;80.90;;;2.28;57.70;95817.50;5069536;28;20478;-54
2022/01/16 03:04:06;;;;;;;15.00;9.30;;;2.50;80.50;;;2.29;58.91;95820.03;5069897;28;20554;-55
2022/01/16 03:06:33;;;;;;;16.30;10.20;;;2.50;80.70;;;2.29;58.38;95814.84;5072639;28;20482;-55
2022/01/16 03:09:01;;;;;;;11.87;8.57;;;2.60;80.60;;;2.30;57.88;95820.88;5074705;28;20487;-56
2022/01/16 03:11:34;;;;;;;16.00;9.23;;;2.60;80.90;;;2.31;57.75;95817.38;5075158;28;20475;-56
2022/01/16 03:14:03;;;;;;;15.90;8.70;;;2.60;80.80;;;2.30;58.32;95815.66;5076609;28;20561;-54
2022/01/16 03:16:31;;;;;;;14.40;9.90;;;2.60;80.90;;;2.28;58.76;95813.13;5077649;28;20483;-55
2022/01/16 03:21:55;;;;;;;11.40;8.23;;;2.50;80.80;;;2.28;58.80;95807.13;5073597;28;20992;-56
2022/01/16 03:24:25;;;;;;;12.57;8.77;;;2.50;80.80;;;2.29;58.63;95819.16;5072399;28;20453;-57
2022/01/16 03:26:54;;;;;;;15.70;9.73;;;2.50;81.70;;;2.27;58.48;95818.41;5072598;28;20824;-58
2022/01/16 03:29:23;;;;;;;16.40;8.97;;;2.50;81.10;;;2.28;58.50;95817.50;5075091;28;20518;-56
2022/01/16 03:31:50;;;;;;;13.80;9.50;;;2.50;80.60;;;2.27;57.81;95818.41;5076817;28;20990;-56
2022/01/16 03:34:17;;;;;;;14.10;9.67;;;2.50;80.70;;;2.25;59.16;95825.41;5075554;28;21014;-55
2022/01/16 03:36:45;;;;;;;16.97;10.70;;;2.50;80.70;;;2.22;58.79;95830.75;5076765;28;20559;-56
2022/01/16 03:39:12;;;;;;;17.17;11.03;;;2.50;80.90;;;2.22;58.99;95833.34;5076728;28;20458;-55
2022/01/16 03:41:39;;;;;;;19.50;12.07;;;2.50;81.20;;;2.20;58.41;95840.31;5074251;28;20494;-56
2022/01/16 03:44:07;;;;;;;23.53;10.77;;;2.50;81.80;;;2.19;59.30;95836.06;5073891;28;20462;-56
2022/01/16 03:46:37;;;;;;;15.20;9.23;;;2.50;81.10;;;2.18;58.48;95831.75;5070661;28;20470;-56
2022/01/16 03:49:06;;;;;;;15.83;10.20;;;2.40;81.10;;;2.16;58.58;95839.63;5073823;28;20475;-55
2022/01/16 03:51:34;;;;;;;15.90;10.63;;;2.40;81.80;;;2.13;58.29;95839.75;5071190;28;20482;-55
2022/01/16 03:54:01;;;;;;;16.90;9.57;;;2.40;81.70;;;2.11;58.75;95828.59;5073575;28;20451;-56
2022/01/16 03:56:29;;;;;;;30.10;12.30;;;2.40;81.20;;;2.10;58.06;95832.09;5073058;28;20541;-55
2022/01/16 03:58:56;;;;;;;15.93;9.60;;;2.40;81.10;;;2.09;58.37;95844.22;5077687;28;20465;-57
2022/01/16 04:01:24;;;;;;;15.13;8.67;;;2.40;81.40;;;2.07;57.75;95834.81;5073899;28;20471;-56
2022/01/16 04:03:53;;;;;;;13.67;10.43;;;2.30;81.30;;;2.07;58.18;95840.00;5073767;28;20482;-55
2022/01/16 04:06:20;;;;;;;15.27;10.80;;;2.30;81.50;;;2.06;58.37;95839.16;5073520;28;20470;-55
2022/01/16 04:08:48;;;;;;;17.20;9.80;;;2.30;81.50;;;2.06;58.91;95841.75;5075146;28;20534;-56
2022/01/16 04:11:15;;;;;;;20.40;10.23;;;2.30;81.50;;;2.06;58.12;95844.34;5073413;28;20531;-56
2022/01/16 04:13:49;;;;;;;13.10;9.07;;;2.30;81.50;;;2.07;58.40;95850.38;5070895;28;20438;-56
2022/01/16 04:16:17;;;;;;;14.30;8.90;;;2.30;82.30;;;2.03;58.76;95849.69;5071714;28;20494;-54
2022/01/16 04:18:44;;;;;;;13.60;9.60;;;2.30;81.60;;;2.03;58.95;95847.09;5073088;28;20491;-56
2022/01/16 04:21:13;;;;;;;13.30;9.20;;;2.30;81.60;;;2.05;58.67;95847.00;5076956;28;20836;-56
2022/01/16 04:23:40;;;;;;;17.00;10.10;;;2.30;81.50;;;2.06;58.53;95859.06;5074811;28;20457;-56
2022/01/16 04:26:07;;;;;;;11.50;9.17;;;2.30;81.60;;;2.05;58.34;95860.81;5073570;28;20520;-54
2022/01/16 04:28:35;;;;;;;13.80;9.37;;;2.30;81.60;;;2.03;59.64;95860.06;5070526;28;21060;-56
2022/01/16 04:31:02;;;;;;;13.80;9.93;;;2.30;81.60;;;2.06;59.08;95866.84;5073371;28;20477;-54
2022/01/16 04:33:29;;;;;;;17.90;9.77;;;2.30;81.60;;;2.06;59.38;95872.91;5077452;28;20461;-56
2022/01/16 04:35:57;;;;;;;19.40;8.97;;;2.30;81.90;;;2.08;58.67;95872.84;5075595;28;20545;-57
2022/01/16 04:38:25;;;;;;;21.03;9.80;;;2.30;81.50;;;2.13;59.22;95881.25;5075997;28;20458;-56
2022/01/16 04:43:51;;;;;;;14.27;10.27;;;2.40;81.80;;;2.14;59.42;95863.03;5071666;28;20435;-56
2022/01/16 04:46:19;;;;;;;12.80;9.13;;;2.40;81.70;;;2.12;58.04;95867.47;5075592;28;20475;-54
2022/01/16 04:48:46;;;;;;;14.73;10.00;;;2.40;81.70;;;2.12;58.15;95875.25;5076818;28;20487;-55
2022/01/16 04:51:14;;;;;;;14.20;9.83;;;2.40;81.70;;;2.13;58.96;95871.72;5074232;28;20471;-56
2022/01/16 04:53:43;;;;;;;16.23;10.80;;;2.40;81.70;;;2.14;59.04;95863.03;5077035;28;20458;-56
2022/01/16 04:56:10;;;;;;;17.30;10.27;;;2.40;81.70;;;2.16;58.19;95868.16;5074159;28;20475;-55
2022/01/16 04:58:38;;;;;;;20.10;11.80;;;2.40;81.70;;;2.18;58.57;95868.09;5075460;28;20463;-56
2022/01/16 05:01:05;;;;;;;15.03;10.60;;;2.40;81.70;;;2.15;57.71;95864.72;5069890;28;20474;-57
2022/01/16 05:03:33;;;;;;;18.73;11.20;;;2.40;81.70;;;2.14;58.22;95873.41;5072742;28;20473;-55
2022/01/16 05:06:00;;;;;;;19.20;11.37;;;2.40;81.70;;;2.14;59.37;95886.41;5075976;28;20474;-57
2022/01/16 05:08:28;;;;;;;13.53;9.97;;;2.40;81.70;;;2.17;58.44;95879.38;5079629;28;20439;-54
2022/01/16 05:10:57;;;;;;;18.73;11.10;;;2.40;81.40;;;2.19;58.03;95872.38;5076561;28;20470;-56
2022/01/16 05:16:34;;;;;;;16.40;10.77;;;2.40;81.20;;;2.19;59.16;95869.78;5078790;28;20535;-54
2022/01/16 05:16:36;;;;;;;19.60;11.23;;;2.40;81.00;;;2.18;58.44;95862.91;5076171;28;20460;-56
2022/01/16 05:19:03;;;;;;;20.37;11.80;;;2.40;81.30;;;2.17;58.62;95866.41;5077343;28;20469;-55
2022/01/16 05:21:31;;;;;;;15.07;10.57;;;2.40;81.30;;;2.15;58.21;95867.34;5076241;28;20997;-56
2022/01/16 05:23:58;;;;;;;16.70;11.20;;;2.40;81.30;;;2.15;58.46;95872.53;5080752;28;20462;-56
2022/01/16 05:26:28;;;;;;;18.23;12.20;;;2.40;81.20;;;2.14;57.91;95873.41;5077990;28;20471;-55
2022/01/16 05:28:55;;;;;;;18.10;10.77;;;2.40;81.20;;;2.14;58.13;95875.19;5077936;28;20572;-56
2022/01/16 05:31:23;;;;;;;15.83;10.53;;;2.40;81.30;;;2.13;58.13;95866.53;5077400;28;20483;-54
2022/01/16 05:33:50;;;;;;;17.83;11.30;;;2.40;81.20;;;2.13;58.00;95863.94;5076808;28;20868;-56
2022/01/16 05:36:19;;;;;;;18.30;11.63;;;2.40;81.00;;;2.13;58.98;95873.47;5076710;28;20917;-56
2022/01/16 05:38:46;;;;;;;18.20;10.83;;;2.40;81.00;;;2.11;57.52;95865.75;5078795;28;20458;-56
2022/01/16 05:41:14;;;;;;;17.07;11.27;;;2.40;80.90;;;2.09;57.89;95870.19;5074594;28;20474;-56
2022/01/16 05:43:42;;;;;;;17.90;10.50;;;2.40;80.80;;;2.08;58.35;95860.69;5075304;28;20966;-55
2022/01/16 05:46:11;;;;;;;17.50;11.00;;;2.40;80.90;;;2.10;58.08;95877.03;5075443;28;20470;-54
2022/01/16 05:48:38;;;;;;;17.80;10.70;;;2.40;81.00;;;2.12;58.83;95877.84;5075504;28;20455;-55
2022/01/16 05:51:05;;;;;;;24.07;12.33;;;2.40;81.00;;;2.15;58.28;95872.53;5074220;28;21111;-55
2022/01/16 05:53:32;;;;;;;15.90;10.23;;;2.40;81.30;;;2.18;58.53;95873.28;5077651;28;20959;-58
2022/01/16 05:56:00;;;;;;;19.63;11.30;;;2.40;81.30;;;2.20;58.19;95880.13;5075185;28;20470;-56
2022/01/16 05:58:29;;;;;;;24.00;13.43;;;2.40;81.80;;;2.22;58.61;95880.06;5075812;28;20442;-57
2022/01/16 06:00:57;;;;;;;25.67;13.50;;;2.50;81.10;;;2.25;58.52;95890.31;5078181;28;20557;-54
2022/01/16 06:03:24;;;;;;;20.07;12.87;;;2.50;80.90;;;2.27;57.83;95884.13;5074781;28;20489;-56
2022/01/16 06:05:52;;;;;;;24.20;13.17;;;2.50;80.90;;;2.30;57.92;95878.81;5075931;28;20520;-54
2022/01/16 06:08:19;;;;;;;25.63;13.10;;;2.50;80.80;;;2.31;57.89;95883.09;5074048;28;20486;-58
2022/01/16 06:10:46;;;;;;;23.60;13.63;;;2.60;80.70;;;2.31;58.07;95888.28;5076491;28;20548;-58
2022/01/16 06:13:14;;;;;;;27.20;13.40;;;2.60;80.40;;;2.33;58.73;95885.63;5074829;28;20461;-57
2022/01/16 06:15:41;;;;;;;23.67;13.23;;;2.60;81.00;;;2.33;58.87;95888.22;5078140;28;21026;-55
2022/01/16 06:18:10;;;;;;;23.43;12.93;;;2.60;80.90;;;2.32;57.26;95900.38;5073223;28;20509;-58
2022/01/16 06:20:37;;;;;;;21.93;13.20;;;2.60;80.50;;;2.30;58.00;95896.13;5076497;28;20462;-57
2022/01/16 06:23:04;;;;;;;30.80;14.60;;;2.60;80.20;;;2.24;57.65;95896.38;5075768;28;20463;-53
2022/01/16 06:25:32;;;;;;;38.13;17.40;;;2.50;79.80;;;2.19;58.22;95900.94;5077552;28;20461;-58
2022/01/16 06:27:59;;;;;;;46.43;21.87;;;2.50;79.40;;;2.14;56.99;95917.53;5071930;28;20448;-59
2022/01/16 06:30:26;;;;;;;39.63;19.87;;;2.40;80.00;;;2.12;58.14;95921.09;5076167;28;20497;-58
2022/01/16 06:32:54;;;;;;;49.77;19.23;;;2.40;79.30;;;2.11;57.63;95920.25;5071560;28;20455;-55
2022/01/16 06:35:22;;;;;;;33.00;17.67;;;2.40;79.50;;;2.12;56.73;95926.28;5072467;28;20466;-56
2022/01/16 06:37:50;;;;;;;40.50;18.70;;;2.30;79.40;;;2.12;57.77;95932.34;5072627;28;20993;-55
2022/01/16 06:40:17;;;;;;;46.20;20.57;;;2.40;79.50;;;2.13;58.04;95934.00;5079246;28;21199;-54
2022/01/16 06:42:44;;;;;;;41.50;20.13;;;2.40;79.70;;;2.14;57.73;95930.50;5074454;28;20542;-57
2022/01/16 06:45:12;;;;;;;66.37;29.10;;;2.40;79.60;;;2.18;57.19;95931.22;5073454;28;20531;-57
2022/01/16 06:47:39;;;;;;;77.33;35.40;;;2.40;79.60;;;2.19;58.08;95927.72;5072504;28;20458;-57
2022/01/16 06:50:08;;;;;;;89.37;32.90;;;2.40;79.50;;;2.21;56.92;95930.25;5075689;28;20485;-57
2022/01/16 06:52:36;;;;;;;83.80;32.27;;;2.50;79.50;;;2.20;56.44;95923.38;5074123;28;20462;-56
2022/01/16 06:55:04;;;;;;;56.50;28.20;;;2.50;79.40;;;2.18;58.04;95931.22;5073601;28;20446;-55
2022/01/16 06:57:32;;;;;;;52.83;26.57;;;2.40;79.60;;;2.18;57.23;95931.22;5072118;28;20464;-56
2022/01/16 06:59:59;;;;;;;50.90;24.77;;;2.40;79.50;;;2.21;56.50;95922.47;5072518;28;20519;-56
2022/01/16 07:02:27;;;;;;;50.23;25.60;;;2.50;79.30;;;2.21;56.88;95933.69;5071580;28;20455;-57
2022/01/16 07:04:54;;;;;;;44.70;21.83;;;2.50;79.30;;;2.20;57.48;95929.44;5073335;28;20524;-57
2022/01/16 07:07:22;;;;;;;43.23;22.53;;;2.50;79.40;;;2.20;57.45;95939.81;5072054;28;20444;-57
2022/01/16 07:09:50;;;;;;;39.93;21.17;;;2.50;79.50;;;2.22;57.68;95945.78;5069968;28;20721;-55
2022/01/16 07:12:18;;;;;;;35.60;19.40;;;2.50;79.70;;;2.27;57.24;95955.97;5074919;28;20438;-56
2022/01/16 07:14:45;;;;;;;43.50;24.20;;;2.50;79.90;;;2.32;57.72;95949.69;5076936;28;20465;-57
2022/01/16 07:17:12;;;;;;;141.93;82.33;;;2.50;79.80;;;2.42;57.39;95947.56;5075862;28;20500;-57
2022/01/16 07:19:40;;;;;;;44.83;25.90;;;2.60;79.90;;;2.61;57.37;95945.03;5074622;28;20462;-57
2022/01/16 07:22:07;;;;;;;55.37;30.67;;;2.80;79.90;;;2.91;57.08;95946.38;5079996;28;20472;-55
2022/01/16 07:24:34;;;;;;;140.47;79.43;;;3.10;80.10;;;3.15;56.59;95947.06;5075809;28;20800;-56
2022/01/16 07:27:03;;;;;;;83.50;47.03;;;3.40;79.00;;;3.30;56.20;95945.50;5069210;28;20474;-57
2022/01/16 07:29:31;;;;;;;77.87;41.50;;;3.60;77.70;;;3.45;56.36;95947.44;5072294;28;20490;-57
2022/01/16 07:31:59;;;;;;;89.43;48.37;;;3.70;77.50;;;3.75;55.69;95952.16;5072373;28;20473;-57
2022/01/16 07:34:26;;;;;;;42.20;21.30;;;4.00;77.70;;;4.05;54.71;95954.22;5077789;28;20864;-56
2022/01/16 07:36:54;;;;;;;44.10;27.93;;;4.30;75.80;;;4.27;54.36;95954.84;5075172;28;21021;-57
2022/01/16 07:39:21;;;;;;;33.97;17.33;;;4.60;75.00;;;4.58;53.75;95957.72;5079235;28;20446;-56
2022/01/16 07:41:48;;;;;;;31.90;18.00;;;4.90;74.70;;;4.92;53.90;95959.47;5074228;28;20470;-57
2022/01/16 07:44:17;;;;;;;39.90;19.73;;;5.20;74.00;;;5.47;53.19;95957.50;5074351;28;20450;-58
2022/01/16 07:46:44;;;;;;;37.07;19.70;;;5.70;74.10;;;6.16;52.66;95958.16;5073129;28;20478;-56
2022/01/16 07:49:11;;;;;;;32.73;18.03;;;6.30;73.10;;;6.68;50.62;95963.03;5071430;28;20809;-57
2022/01/16 07:51:39;;;;;;;43.57;19.17;;;6.80;71.00;;;7.02;50.03;95961.06;5072054;28;20467;-55
2022/01/16 07:54:06;;;;;;;39.00;21.30;;;7.10;69.30;;;7.21;49.06;95970.44;5076567;28;20454;-63
2022/01/16 07:56:33;;;;;;;33.83;20.80;;;7.30;68.30;;;7.26;49.26;95971.81;5071886;28;20498;-57
2022/01/16 07:59:01;;;;;;;28.50;17.83;;;7.40;66.10;;;7.26;48.53;95981.44;5075064;28;21033;-57
2022/01/16 08:01:30;;;;;;;33.00;18.37;;;7.50;65.70;;;7.24;48.89;95975.47;5077576;28;21023;-56
2022/01/16 08:03:57;;;;;;;27.63;16.47;;;7.40;65.20;;;7.23;48.25;95971.16;5071902;28;20873;-57
2022/01/16 08:06:25;;;;;;;27.47;17.77;;;7.40;64.60;;;7.24;47.83;95963.22;5076280;28;20481;-58
2022/01/16 08:08:53;;;;;;;26.90;18.73;;;7.40;63.50;;;7.33;47.39;95972.31;5070666;28;20451;-58
2022/01/16 08:11:20;;;;;;;30.40;18.70;;;7.50;63.10;;;7.52;47.29;95957.16;5071398;28;20878;-56
2022/01/16 08:13:47;;;;;;;30.00;14.90;;;7.60;63.40;;;7.75;47.10;95952.28;5072721;28;20458;-55
2022/01/16 08:16:15;;;;;;;33.30;17.47;;;7.80;63.50;;;7.97;47.58;95956.16;5076720;28;20905;-56
2022/01/16 08:18:44;;;;;;;26.87;15.10;;;8.00;63.60;;;8.01;46.41;95962.88;5077716;28;20578;-57
2022/01/16 08:21:11;;;;;;;30.67;16.93;;;8.10;60.40;;;7.93;46.66;95962.53;5075514;28;20474;-57
2022/01/16 08:23:38;;;;;;;34.20;18.27;;;8.10;61.30;;;7.90;46.65;95953.94;5074912;28;20455;-57
2022/01/16 08:26:05;;;;;;;33.73;15.30;;;8.00;61.00;;;7.88;47.10;95963.69;5072587;28;20497;-58
2022/01/16 08:28:33;;;;;;;31.80;15.87;;;8.00;61.60;;;8.02;47.19;95954.09;5073672;28;20523;-57
2022/01/16 08:31:00;;;;;;;27.67;14.57;;;8.10;62.00;;;8.19;45.52;95951.22;5073647;28;20606;-57
2022/01/16 08:33:27;;;;;;;17.57;13.13;;;8.20;60.40;;;8.19;44.85;95948.59;5072758;28;20849;-57
2022/01/16 08:35:56;;;;;;;21.77;13.23;;;8.20;57.90;;;8.28;45.36;95954.22;5070550;28;20498;-57
2022/01/16 08:38:23;;;;;;;15.87;11.57;;;8.30;59.10;;;8.34;44.90;95959.88;5074005;28;20449;-58
2022/01/16 08:40:51;;;;;;;20.40;11.27;;;8.30;58.60;;;8.58;44.28;95949.63;5073553;28;20471;-57
2022/01/16 08:43:18;;;;;;;25.33;11.50;;;8.50;58.30;;;8.89;44.63;95950.22;5076146;28;20908;-56
2022/01/16 08:45:46;;;;;;;17.23;9.30;;;8.80;57.90;;;9.20;42.25;95947.28;5077231;28;20471;-57
2022/01/16 08:48:13;;;;;;;16.93;10.00;;;9.00;56.20;;;9.43;42.47;95943.09;5078433;28;20912;-57
2022/01/16 08:50:42;;;;;;;15.00;9.70;;;9.30;55.30;;;9.74;43.52;95956.72;5076573;28;20496;-56
2022/01/16 08:53:11;;;;;;;18.50;11.10;;;9.50;57.00;;;10.14;43.12;95940.75;5081329;28;20455;-57
2022/01/16 08:55:38;;;;;;;17.37;10.70;;;9.90;56.40;;;10.61;41.79;95941.69;5078222;28;20474;-55
2022/01/16 08:58:05;;;;;;;19.43;11.93;;;10.30;54.00;;;10.92;40.11;95945.53;5074745;28;20534;-57
2022/01/16 09:00:33;;;;;;;17.73;11.90;;;10.60;51.40;;;11.17;41.37;95942.81;5075973;28;20639;-57
2022/01/16 09:03:00;;;;;;;19.13;12.50;;;10.90;52.50;;;11.52;41.42;95939.28;5077805;28;20450;-57
2022/01/16 09:05:27;;;;;;;13.30;10.50;;;11.20;53.10;;;11.92;41.25;95933.53;5079564;28;20469;-57
2022/01/16 09:07:55;;;;;;;16.97;10.90;;;11.60;53.00;;;12.34;39.76;95934.53;5078823;28;20539;-57
2022/01/16 09:10:25;;;;;;;14.67;10.10;;;12.00;51.50;;;12.63;37.61;95926.06;5079090;28;20867;-56
2022/01/16 09:12:53;;;;;;;14.30;10.80;;;12.30;48.10;;;12.82;39.57;95927.16;5078962;28;20454;-58
2022/01/16 09:15:20;;;;;;;9.93;7.80;;;12.50;50.50;;;13.04;36.78;95913.00;5078991;28;20475;-56
2022/01/16 09:17:48;;;;;;;13.13;10.23;;;12.70;46.80;;;13.19;37.91;95914.34;5076657;28;20451;-57
2022/01/16 09:20:15;;;;;;;12.40;9.13;;;12.90;48.00;;;13.49;38.28;95910.06;5075489;28;20477;-59
2022/01/16 09:22:43;;;;;;;14.13;7.87;;;13.10;48.60;;;13.72;35.65;95905.44;5073886;28;20443;-57
2022/01/16 09:25:11;;;;;;;14.80;8.13;;;13.30;44.90;;;13.77;35.46;95907.69;5076548;28;21089;-57
2022/01/16 09:27:40;;;;;;;9.03;7.17;;;13.40;43.80;;;13.56;36.18;95898.00;5075232;28;20455;-57
2022/01/16 09:30:09;;;;;;;9.47;6.53;;;13.30;45.00;;;13.55;35.86;95898.16;5076597;28;21095;-57
2022/01/16 09:32:36;;;;;;;9.43;7.30;;;13.20;45.70;;;13.75;35.89;95902.53;5074966;28;20553;-55
2022/01/16 09:35:05;;;;;;;9.27;7.40;;;13.30;45.00;;;13.93;36.53;95901.91;5077451;28;20546;-57
2022/01/16 09:37:32;;;;;;;10.97;8.23;;;13.50;46.20;;;14.15;36.63;95896.38;5079550;28;20447;-56
2022/01/16 09:40:00;;;;;;;10.30;7.50;;;13.70;46.50;;;14.46;35.70;95893.63;5078111;28;20881;-57
2022/01/16 09:42:27;;;;;;;9.50;8.27;;;14.00;46.00;;;14.80;35.34;95889.78;5078831;28;20508;-56
2022/01/16 09:44:56;;;;;;;9.20;7.17;;;14.30;45.10;;;15.06;35.39;95893.50;5074811;28;20447;-56
2022/01/16 09:47:23;;;;;;;13.57;10.17;;;14.60;44.70;;;15.28;34.83;95878.25;5073128;28;20462;-58
2022/01/16 09:49:50;;;;;;;16.10;9.70;;;14.80;44.10;;;15.53;32.97;95865.31;5074587;28;20450;-57
2022/01/16 09:52:18;;;;;;;17.63;7.83;;;15.10;42.10;;;15.69;32.69;95868.19;5079285;28;20454;-55
2022/01/16 09:54:45;;;;;;;11.87;7.43;;;15.20;42.40;;;15.79;34.40;95864.69;5075220;28;20462;-57
2022/01/16 09:57:13;;;;;;;8.33;7.00;;;15.30;43.50;;;15.89;33.85;95860.16;5077747;28;20447;-58
2022/01/16 09:59:40;;;;;;;7.80;6.97;;;15.50;42.90;;;16.04;32.98;95863.97;5078395;28;20451;-57
2022/01/16 10:02:09;;;;;;;11.50;7.90;;;15.60;41.90;;;16.05;33.49;95870.09;5075994;28;20481;-57
2022/01/16 10:04:37;;;;;;;10.50;7.47;;;15.70;42.10;;;15.98;32.91;95859.25;5075305;28;20467;-56
2022/01/16 10:07:06;;;;;;;13.70;8.20;;;15.70;41.00;;;15.81;29.71;95849.44;5072987;28;20860;-56
2022/01/16 10:09:35;;;;;;;14.40;8.77;;;15.50;37.80;;;15.52;32.43;95848.59;5078544;28;20439;-59
2022/01/16 10:12:06;;;;;;;19.20;7.87;;;15.30;39.70;;;15.48;33.06;95847.19;5074972;28;20521;-56
2022/01/16 10:14:37;;;;;;;11.30;7.50;;;15.20;41.40;;;15.71;33.11;95846.81;5076377;28;20450;-58
2022/01/16 10:17:13;;;;;;;10.20;8.97;;;15.20;41.90;;;16.12;32.71;95844.63;5078863;28;20478;-59
2022/01/16 10:19:40;;;;;;;17.43;7.63;;;15.50;41.60;;;16.41;29.83;95836.47;5076427;28;20559;-58
2022/01/16 10:22:09;;;;;;;10.40;7.07;;;15.80;38.30;;;16.32;29.30;95845.34;5077598;28;20513;-57
2022/01/16 10:24:39;;;;;;;9.93;7.00;;;15.80;37.50;;;16.09;29.88;95840.47;5076114;28;20443;-57
2022/01/16 10:27:17;;;;;;;9.57;7.13;;;15.70;37.90;;;15.93;31.69;95841.13;5076478;28;20498;-56
2022/01/16 10:29:47;;;;;;;12.53;9.57;;;15.50;39.40;;;16.08;32.62;95822.88;5077986;28;20525;-57
2022/01/16 10:32:18;;;;;;;10.10;7.37;;;15.60;41.10;;;16.46;32.04;95820.91;5076952;28;20482;-56
2022/01/16 10:34:46;;;;;;;8.77;7.30;;;15.90;40.80;;;16.78;29.56;95814.19;5074239;28;20543;-57
2022/01/16 10:37:31;;;;;;;7.40;6.67;;;16.20;37.90;;;16.73;29.34;95811.19;5075094;28;20460;-56
2022/01/16 10:40:02;;;;;;;8.90;6.60;;;16.30;38.00;;;16.60;28.82;95803.59;5074867;28;20454;-57
2022/01/16 10:42:30;;;;;;;13.00;7.10;;;16.20;36.20;;;16.42;30.57;95802.78;5076346;28;20474;-59
2022/01/16 10:45:01;;;;;;;10.87;6.77;;;16.10;38.00;;;16.34;31.24;95808.03;5075080;28;21302;-56
2022/01/16 10:47:35;;;;;;;11.77;8.27;;;16.00;38.90;;;16.52;32.76;95808.84;5078202;28;20475;-57
2022/01/16 10:50:18;;;;;;;13.00;9.17;;;16.10;41.50;;;16.93;31.26;95808.34;5076312;28;20542;-58
2022/01/16 10:52:56;;;;;;;17.60;9.00;;;16.40;39.90;;;17.28;30.61;95801.25;5076721;28;20455;-57
2022/01/16 10:55:32;;;;;;;20.13;14.30;;;16.70;39.70;;;17.67;31.00;95798.09;5076187;28;20465;-58